KHRO/HRO METAR and TAF weather

Enter ICAO airport designator
Station Type Date Time Source
KHRO METAR 2021/10/24 22:53 UTC NOAA

KHRO 242253Z AUTO 22006KT 10SM FEW040 BKN049 BKN060 23/17 A2977 RMK AO2 RAB2155E20 SLP065 P0000 T02280167


Station Type Date Time Source
KHRO Decoded METAR 2021/10/24 22:53 UTC NOAA

HARRISON BOONE COUNTY AIRPORT , AR, United States (KHRO) 36-16N 093-09W 417M
Oct 24, 2021 - 06:53 PM EDT / 2021.10.24 2253 UTC
Wind: from the SW (220 degrees) at 7 MPH (6 KT):0
Visibility: 10 mile(s):0
Sky conditions: mostly cloudy
Precipitation last hour: A trace
Temperature: 73.0 F (22.8 C)
Dew Point: 62.1 F (16.7 C)
Relative Humidity: 68%
Pressure (altimeter): 29.77 in. Hg (1008 hPa)
ob: KHRO 242253Z AUTO 22006KT 10SM FEW040 BKN049 BKN060 23/17 A2977 RMK AO2 RAB2155E20 SLP065 P0000 T02280167
cycle: 23

Station Type Date Time Source
KHRO TAF 2021/10/24 18:42 UTC NOAA

TAF KHRO 241739Z 2418/2518 20015G25KT P6SM BKN040 OVC060
FM242000 22015G25KT P6SM VCTS SCT045CB BKN100
FM250000 24012G22KT 5SM SHRA BR VCTS BKN025CB OVC050
TEMPO 2500/2504 VRB20G40KT 2SM TSRA BR OVC015CB
FM250400 29010G17KT P6SM SCT060 SCT250
FM251400 30009KT P6SM SKC

Example: see airport list